Time;durP1;ratioP1;P1;durP2;ratioP2;P2;SDS_P1;SDS_P2;PMS_P1;PMS_P2;Temp;Humidity;BMP_temperature;BMP_pressure;BME280_temperature;BME280_humidity;BME280_pressure;Samples;Min_cycle;Max_cycle;Signal;HPM_P1;HPM_P2
2022/08/15 00:01:23;;;;;;;57.97;53.10;;;21.50;83.00;;;;;;5015740;28;20506;-78
2022/08/15 00:03:52;;;;;;;59.95;55.17;;;21.50;83.20;;;;;;5033018;28;20052;-78
2022/08/15 00:06:22;;;;;;;60.95;56.15;;;21.50;83.10;;;;;;5049690;28;20017;-78
2022/08/15 00:08:54;;;;;;;61.53;56.88;;;21.50;83.20;;;;;;5033087;28;20025;-78
2022/08/15 00:11:23;;;;;;;58.65;54.10;;;21.50;83.30;;;;;;5033562;28;20032;-78
2022/08/15 00:13:52;;;;;;;57.55;53.05;;;21.40;83.10;;;;;;5049747;28;20471;-78
2022/08/15 00:16:18;;;;;;;61.05;56.45;;;21.40;83.50;;;;;;5032236;28;20052;-78
2022/08/15 00:18:46;;;;;;;58.35;53.50;;;21.40;83.40;;;;;;5033211;28;20044;-78
2022/08/15 00:21:13;;;;;;;59.33;54.28;;;21.40;83.20;;;;;;5033126;28;20033;-78
2022/08/15 00:23:40;;;;;;;59.00;54.33;;;21.40;83.60;;;;;;5032904;28;20037;-79
2022/08/15 00:26:06;;;;;;;59.88;55.00;;;21.40;83.40;;;;;;5033013;28;20037;-78
2022/08/15 00:28:32;;;;;;;62.22;57.38;;;21.50;83.00;;;;;;5049650;28;20033;-79
2022/08/15 00:30:59;;;;;;;61.90;56.78;;;21.40;83.30;;;;;;5031427;28;20033;-77
2022/08/15 00:33:25;;;;;;;62.38;57.40;;;21.40;83.70;;;;;;5049229;28;20060;-78
2022/08/15 00:35:51;;;;;;;61.75;56.90;;;21.40;83.20;;;;;;5028796;28;20052;-78
2022/08/15 00:38:22;;;;;;;57.97;53.03;;;21.30;84.40;;;;;;5012981;28;20064;-78
2022/08/15 00:43:56;;;;;;;61.15;56.38;;;21.30;83.90;;;;;;5031422;28;20346;-78
2022/08/15 00:46:22;;;;;;;59.78;55.38;;;21.30;83.80;;;;;;5014622;28;20056;-78
2022/08/15 00:48:50;;;;;;;60.33;55.30;;;21.40;83.20;;;;;;5031686;28;20033;-78
2022/08/15 00:51:17;;;;;;;58.67;53.92;;;21.30;83.90;;;;;;5015597;28;20034;-78
2022/08/15 00:53:46;;;;;;;54.47;49.97;;;21.30;83.80;;;;;;5015182;28;20034;-78
2022/08/15 00:56:13;;;;;;;67.10;61.78;;;21.30;84.30;;;;;;5031918;28;20029;-78
2022/08/15 00:58:40;;;;;;;65.00;59.97;;;21.40;83.20;;;;;;5014100;28;20056;-78
2022/08/15 01:01:06;;;;;;;65.43;60.40;;;21.40;83.00;;;;;;5013945;28;20514;-78
2022/08/15 01:03:35;;;;;;;68.50;63.60;;;21.50;83.50;;;;;;5031031;28;20599;-78
2022/08/15 01:06:01;;;;;;;69.40;63.97;;;21.50;82.40;;;;;;5014394;28;20033;-78
2022/08/15 01:08:31;;;;;;;65.57;60.55;;;21.50;82.40;;;;;;5031622;28;20037;-78
2022/08/15 01:10:58;;;;;;;67.15;62.00;;;21.50;82.80;;;;;;5031745;28;20060;-78
2022/08/15 01:13:24;;;;;;;65.65;60.40;;;21.50;82.50;;;;;;5014016;28;20515;-78
2022/08/15 01:15:50;;;;;;;63.67;57.85;;;21.50;82.40;;;;;;5014001;28;20037;-78
2022/08/15 01:18:16;;;;;;;64.13;59.22;;;21.40;82.50;;;;;;5031329;28;20036;-78
2022/08/15 01:20:43;;;;;;;63.40;58.15;;;21.40;82.80;;;;;;5040619;28;20060;-78
2022/08/15 01:23:11;;;;;;;67.13;61.60;;;21.50;82.60;;;;;;5052260;28;20025;-78
2022/08/15 01:25:45;;;;;;;67.65;62.08;;;21.50;82.20;;;;;;5053538;28;20040;-79
2022/08/15 01:28:23;;;;;;;68.07;62.70;;;21.50;82.10;;;;;;5036016;28;20037;-78
2022/08/15 01:31:00;;;;;;;65.82;60.58;;;21.50;82.20;;;;;;5051465;28;20036;-78
2022/08/15 01:33:27;;;;;;;71.78;65.68;;;21.40;82.40;;;;;;5035659;28;20048;-78
2022/08/15 01:35:54;;;;;;;69.43;63.92;;;21.40;82.10;;;;;;5023107;28;20056;-77
2022/08/15 01:38:35;;;;;;;61.30;56.30;;;21.40;82.20;;;;;;5032211;28;20030;-78
2022/08/15 01:41:08;;;;;;;61.63;56.83;;;21.30;82.60;;;;;;5031614;28;20518;-78
2022/08/15 01:43:39;;;;;;;62.03;56.83;;;21.30;82.60;;;;;;5034601;28;20380;-78
2022/08/15 01:46:07;;;;;;;59.65;54.72;;;21.30;82.60;;;;;;5035084;28;20041;-78
2022/08/15 01:48:57;;;;;;;66.90;61.65;;;21.40;82.20;;;;;;5034890;28;20045;-78
2022/08/15 01:51:23;;;;;;;64.18;59.17;;;21.40;82.10;;;;;;5051105;28;20032;-78
2022/08/15 01:53:55;;;;;;;62.20;57.33;;;21.40;81.90;;;;;;5051792;28;20028;-78
2022/08/15 01:56:34;;;;;;;62.22;57.47;;;21.50;81.50;;;;;;5035113;28;20017;-78
2022/08/15 01:59:03;;;;;;;68.28;63.20;;;21.50;81.10;;;;;;5035219;28;20028;-78
2022/08/15 02:01:53;;;;;;;74.03;68.68;;;21.50;80.80;;;;;;5051063;28;20040;-78
2022/08/15 02:04:22;;;;;;;67.93;62.47;;;21.50;80.90;;;;;;5035578;28;20025;-78
2022/08/15 02:06:48;;;;;;;69.78;64.70;;;21.40;81.20;;;;;;5052724;28;20021;-78
2022/08/15 02:09:17;;;;;;;66.50;61.70;;;21.30;81.40;;;;;;5034801;28;20100;-78
2022/08/15 02:11:49;;;;;;;63.83;58.88;;;21.40;81.40;;;;;;5052159;28;20029;-78
2022/08/15 02:14:15;;;;;;;69.22;64.00;;;21.40;81.60;;;;;;5035048;28;20383;-78
2022/08/15 02:16:41;;;;;;;64.47;59.70;;;21.40;81.20;;;;;;5034054;28;20048;-79
2022/08/15 02:19:09;;;;;;;69.70;64.38;;;21.40;81.30;;;;;;5034518;28;20040;-78
2022/08/15 02:21:35;;;;;;;68.93;63.45;;;21.40;81.10;;;;;;5034634;28;20040;-78
2022/08/15 02:24:02;;;;;;;67.05;62.03;;;21.30;81.10;;;;;;5034549;28;20503;-77
2022/08/15 02:26:28;;;;;;;68.88;63.72;;;21.40;81.10;;;;;;5050633;28;20025;-78
2022/08/15 02:28:54;;;;;;;70.32;65.32;;;21.40;80.70;;;;;;5050829;28;20434;-78
2022/08/15 02:31:24;;;;;;;73.95;68.63;;;21.50;80.50;;;;;;5034141;28;20044;-78
2022/08/15 02:33:53;;;;;;;71.03;65.78;;;21.50;80.30;;;;;;5050272;28;20063;-78
2022/08/15 02:36:20;;;;;;;67.38;62.45;;;21.50;80.40;;;;;;5051992;28;20029;-78
2022/08/15 02:38:48;;;;;;;69.88;64.80;;;21.30;81.00;;;;;;5032203;28;20049;-78
2022/08/15 02:41:22;;;;;;;66.13;61.65;;;21.40;80.90;;;;;;5030542;28;20033;-78
2022/08/15 02:43:48;;;;;;;71.78;66.70;;;21.30;81.00;;;;;;5035940;28;20341;-78
2022/08/15 02:46:16;;;;;;;64.50;59.70;;;21.40;80.80;;;;;;5033350;28;20039;-78
2022/08/15 02:48:43;;;;;;;62.15;57.45;;;21.30;80.60;;;;;;5051542;28;20523;-78
2022/08/15 02:51:10;;;;;;;68.95;63.90;;;21.40;80.40;;;;;;5050568;28;20044;-78
2022/08/15 02:53:36;;;;;;;66.90;62.22;;;21.40;80.30;;;;;;5050461;28;20025;-78
2022/08/15 02:56:06;;;;;;;73.55;67.90;;;21.30;80.40;;;;;;5051348;28;20036;-78
2022/08/15 02:58:33;;;;;;;61.30;56.90;;;21.40;80.30;;;;;;5050473;28;20029;-79
2022/08/15 03:01:00;;;;;;;59.13;54.58;;;21.40;80.20;;;;;;5016776;28;20523;-78
2022/08/15 03:03:26;;;;;;;63.63;58.97;;;21.40;80.20;;;;;;5049540;28;20029;-78
2022/08/15 03:05:52;;;;;;;63.63;59.13;;;21.30;80.30;;;;;;5033677;28;20021;-78
2022/08/15 03:08:20;;;;;;;62.63;58.42;;;21.40;80.20;;;;;;5051503;28;20073;-78
2022/08/15 03:10:46;;;;;;;65.10;60.42;;;21.30;80.00;;;;;;5049883;28;20028;-78
2022/08/15 03:13:14;;;;;;;62.20;57.78;;;21.30;80.20;;;;;;5033795;28;20032;-78
2022/08/15 03:15:52;;;;;;;62.38;58.08;;;21.20;80.20;;;;;;5051010;28;20403;-78
2022/08/15 03:18:20;;;;;;;67.60;62.70;;;21.20;80.10;;;;;;5033836;28;20510;-78
2022/08/15 03:20:47;;;;;;;64.57;60.38;;;21.20;80.20;;;;;;5049742;28;20043;-78
2022/08/15 03:23:13;;;;;;;65.95;61.47;;;21.20;80.40;;;;;;5033261;28;20017;-77
2022/08/15 03:25:44;;;;;;;64.10;58.97;;;21.20;80.20;;;;;;5033360;28;20033;-78
2022/08/15 03:28:10;;;;;;;64.75;60.03;;;21.30;80.30;;;;;;5034015;28;20041;-78
2022/08/15 03:30:37;;;;;;;63.00;58.72;;;21.30;80.20;;;;;;5016166;28;20032;-78
2022/08/15 03:33:04;;;;;;;67.20;62.25;;;21.20;80.20;;;;;;5033535;28;20040;-78
2022/08/15 03:35:32;;;;;;;63.33;58.92;;;21.20;80.00;;;;;;5032803;28;20044;-78
2022/08/15 03:37:58;;;;;;;63.67;59.05;;;21.20;79.90;;;;;;5049545;28;20028;-78
2022/08/15 03:40:24;;;;;;;64.03;59.00;;;21.30;80.00;;;;;;5049531;28;20396;-78
2022/08/15 03:42:59;;;;;;;71.68;66.60;;;21.30;79.80;;;;;;5033262;28;20048;-78
2022/08/15 03:45:26;;;;;;;65.78;61.20;;;21.30;80.20;;;;;;5032820;28;20396;-78
2022/08/15 03:47:53;;;;;;;62.33;57.83;;;21.30;80.00;;;;;;5033020;28;20047;-78
2022/08/15 03:50:20;;;;;;;65.32;60.50;;;21.30;79.90;;;;;;5050760;28;20037;-78
2022/08/15 03:52:53;;;;;;;65.97;61.33;;;21.30;80.20;;;;;;5032665;28;20063;-78
2022/08/15 03:55:19;;;;;;;64.38;59.65;;;21.20;80.00;;;;;;5032772;28;20037;-78
2022/08/15 03:57:46;;;;;;;64.57;59.70;;;21.30;80.00;;;;;;5033020;28;20040;-78
2022/08/15 04:00:13;;;;;;;64.13;59.67;;;21.20;79.90;;;;;;5048872;28;20426;-78
2022/08/15 04:02:39;;;;;;;66.57;61.60;;;21.20;80.00;;;;;;5049628;28;20029;-78
2022/08/15 04:05:07;;;;;;;65.88;61.03;;;21.20;80.00;;;;;;5033078;28;20487;-78
2022/08/15 04:07:35;;;;;;;72.93;67.68;;;21.20;80.20;;;;;;5050395;28;20032;-78
2022/08/15 04:10:05;;;;;;;73.68;68.07;;;21.10;80.60;;;;;;5049433;28;20032;-78
2022/08/15 04:12:34;;;;;;;71.78;66.53;;;21.10;80.50;;;;;;5049441;28;20033;-77
2022/08/15 04:15:05;;;;;;;78.55;72.47;;;21.10;80.50;;;;;;5052185;28;20032;-77
2022/08/15 04:17:31;;;;;;;75.00;69.32;;;21.00;81.00;;;;;;5052611;28;20036;-78
2022/08/15 04:19:57;;;;;;;71.70;66.63;;;21.10;80.70;;;;;;5036627;28;20044;-78
2022/08/15 04:22:35;;;;;;;71.20;65.68;;;21.10;80.50;;;;;;5054305;28;20022;-78
2022/08/15 04:25:05;;;;;;;64.53;59.85;;;21.00;80.40;;;;;;5053445;28;20021;-78
2022/08/15 04:27:31;;;;;;;72.43;67.28;;;21.00;80.60;;;;;;5053458;28;20036;-78
2022/08/15 04:29:57;;;;;;;63.45;58.55;;;21.00;80.40;;;;;;5054401;28;20021;-78
2022/08/15 04:32:25;;;;;;;68.43;63.78;;;21.10;80.40;;;;;;5052755;28;20029;-78
2022/08/15 04:34:51;;;;;;;68.57;63.30;;;21.10;80.60;;;;;;5052946;28;20036;-78
2022/08/15 04:37:23;;;;;;;66.53;61.60;;;21.00;80.80;;;;;;5052849;28;20025;-78
2022/08/15 04:39:50;;;;;;;62.83;58.50;;;20.90;81.00;;;;;;5053029;28;20207;-79
2022/08/15 04:42:19;;;;;;;63.38;58.92;;;21.00;80.60;;;;;;5036441;28;20032;-79
2022/08/15 04:44:48;;;;;;;66.10;61.35;;;21.10;80.40;;;;;;5023850;28;20038;-78
2022/08/15 04:47:15;;;;;;;62.20;57.35;;;21.10;80.20;;;;;;5032953;28;20037;-78
2022/08/15 04:49:42;;;;;;;68.13;63.08;;;21.10;80.40;;;;;;5036147;28;20044;-78
2022/08/15 04:52:16;;;;;;;59.33;54.80;;;21.10;80.10;;;;;;5052300;28;20029;-78
2022/08/15 04:54:42;;;;;;;63.45;59.00;;;21.10;80.20;;;;;;5052717;28;20379;-78
2022/08/15 04:57:08;;;;;;;70.30;65.20;;;21.20;79.80;;;;;;5052832;28;20490;-78
2022/08/15 04:59:36;;;;;;;61.15;56.55;;;21.20;79.80;;;;;;5052608;28;20033;-78
2022/08/15 05:02:03;;;;;;;66.57;61.80;;;21.10;80.10;;;;;;5035812;28;20036;-78
2022/08/15 05:04:29;;;;;;;69.50;64.70;;;21.10;80.00;;;;;;5035951;28;20051;-77
2022/08/15 05:06:55;;;;;;;63.22;58.97;;;21.20;79.70;;;;;;5035643;28;20041;-78
2022/08/15 05:09:22;;;;;;;65.47;60.85;;;21.20;80.00;;;;;;5052410;28;20029;-78
2022/08/15 05:11:49;;;;;;;57.88;53.63;;;21.20;79.80;;;;;;5035841;28;20037;-78
2022/08/15 05:14:15;;;;;;;64.53;59.90;;;21.10;79.60;;;;;;5035642;28;20045;-78
2022/08/15 05:16:41;;;;;;;62.75;58.67;;;21.10;80.00;;;;;;5035568;28;20029;-78
2022/08/15 05:19:07;;;;;;;61.08;57.10;;;21.10;79.90;;;;;;5035159;28;20040;-78
2022/08/15 05:21:33;;;;;;;62.53;57.88;;;21.10;79.60;;;;;;5035331;28;20068;-78
2022/08/15 05:23:59;;;;;;;65.25;60.47;;;21.10;79.80;;;;;;5052218;28;20032;-78
2022/08/15 05:26:25;;;;;;;65.18;59.97;;;21.10;80.00;;;;;;5051233;28;20024;-78
2022/08/15 05:28:51;;;;;;;64.82;60.28;;;21.10;79.80;;;;;;5052175;28;20036;-78
2022/08/15 05:31:17;;;;;;;64.50;60.10;;;21.10;79.80;;;;;;5051802;28;20037;-79
2022/08/15 05:33:45;;;;;;;61.65;57.40;;;21.20;79.70;;;;;;5035088;28;20037;-78
2022/08/15 05:36:11;;;;;;;64.75;60.10;;;21.20;79.40;;;;;;5051933;28;20033;-78
2022/08/15 05:38:58;;;;;;;65.22;60.92;;;21.30;79.40;;;;;;5035120;28;20033;-78
2022/08/15 05:41:33;;;;;;;63.40;58.88;;;21.20;79.40;;;;;;5035191;28;20055;-78
2022/08/15 05:44:02;;;;;;;60.95;56.97;;;21.20;79.80;;;;;;5046602;28;20388;-78
2022/08/15 05:46:53;;;;;;;62.78;58.28;;;21.20;79.90;;;;;;5042111;28;20108;-78
2022/08/15 05:49:29;;;;;;;64.60;60.25;;;21.30;79.50;;;;;;5051599;28;20025;-78
2022/08/15 05:52:06;;;;;;;56.92;52.88;;;21.30;79.50;;;;;;5035440;28;20052;-78
2022/08/15 05:54:45;;;;;;;63.97;59.20;;;21.30;79.30;;;;;;5035069;28;20507;-78
2022/08/15 05:57:34;;;;;;;63.10;58.47;;;21.20;79.70;;;;;;5051222;28;20045;-78
2022/08/15 06:00:04;;;;;;;57.55;53.45;;;21.30;79.70;;;;;;5051454;28;20036;-78
2022/08/15 06:02:40;;;;;;;57.50;53.15;;;21.30;79.40;;;;;;5033812;28;20036;-78
2022/08/15 06:05:15;;;;;;;59.72;55.72;;;21.30;79.50;;;;;;5051429;28;20029;-78
2022/08/15 06:07:44;;;;;;;59.38;55.00;;;21.30;79.40;;;;;;5034787;28;20040;-78
2022/08/15 06:10:25;;;;;;;56.50;52.60;;;21.30;79.50;;;;;;5034686;28;20041;-78
2022/08/15 06:13:16;;;;;;;62.92;58.35;;;21.30;79.70;;;;;;5051379;28;20400;-78
2022/08/15 06:15:59;;;;;;;60.00;55.85;;;21.30;79.40;;;;;;5050763;28;20036;-78
2022/08/15 06:18:27;;;;;;;58.50;54.83;;;21.30;79.70;;;;;;5034064;28;20506;-78
2022/08/15 06:21:15;;;;;;;58.13;53.90;;;21.30;79.60;;;;;;5050983;28;20041;-78
2022/08/15 06:24:02;;;;;;;53.50;49.83;;;21.30;79.50;;;;;;5036191;28;20056;-78
2022/08/15 06:26:49;;;;;;;50.22;46.58;;;21.30;79.30;;;;;;5052163;28;20025;-78
2022/08/15 06:29:15;;;;;;;51.83;48.08;;;21.30;79.60;;;;;;5051884;28;20475;-78
2022/08/15 06:31:57;;;;;;;53.53;49.78;;;21.40;79.30;;;;;;5047714;28;20455;-79
2022/08/15 06:34:57;;;;;;;52.33;48.63;;;21.40;79.40;;;;;;5034443;28;20510;-78
2022/08/15 06:37:25;;;;;;;49.97;46.38;;;21.40;79.70;;;;;;5030802;28;20487;-78
2022/08/15 06:40:03;;;;;;;51.35;47.33;;;21.30;79.50;;;;;;5024313;28;20041;-78
2022/08/15 06:42:47;;;;;;;50.08;46.75;;;21.40;79.80;;;;;;5050809;28;20048;-78
2022/08/15 06:45:26;;;;;;;51.28;47.67;;;21.30;79.80;;;;;;5017323;28;20476;-78
2022/08/15 06:47:58;;;;;;;50.38;46.30;;;21.30;79.90;;;;;;5033301;28;20530;-78
2022/08/15 06:50:45;;;;;;;51.30;47.15;;;21.20;80.00;;;;;;5033853;28;20033;-78
2022/08/15 06:53:19;;;;;;;49.80;45.80;;;21.10;80.40;;;;;;5050569;28;20025;-78
2022/08/15 06:55:52;;;;;;;58.85;54.47;;;21.10;80.30;;;;;;5050390;28;20024;-78
2022/08/15 06:58:37;;;;;;;53.22;49.58;;;21.10;79.90;;;;;;5033928;28;20525;-78
2022/08/15 07:01:34;;;;;;;51.75;48.10;;;20.90;79.50;;;;;;5049322;28;20384;-78
2022/08/15 07:04:19;;;;;;;50.15;46.42;;;20.90;79.80;;;;;;5050532;28;20029;-78
2022/08/15 07:06:58;;;;;;;50.92;47.42;;;20.90;79.60;;;;;;5050361;28;20029;-78
2022/08/15 07:09:30;;;;;;;52.10;48.72;;;21.00;79.70;;;;;;5050378;28;20028;-77
2022/08/15 07:12:07;;;;;;;52.83;49.13;;;21.00;79.60;;;;;;5049928;28;20052;-77
2022/08/15 07:14:42;;;;;;;52.22;48.58;;;21.00;79.30;;;;;;5050192;28;20032;-77
2022/08/15 07:17:15;;;;;;;53.47;50.00;;;21.10;79.10;;;;;;5050788;28;20044;-77
2022/08/15 07:19:41;;;;;;;55.28;51.03;;;21.10;78.80;;;;;;5050085;28;20036;-77
2022/08/15 07:22:09;;;;;;;52.08;48.80;;;21.00;78.80;;;;;;5033142;28;20076;-77
2022/08/15 07:24:35;;;;;;;56.22;52.53;;;21.10;79.20;;;;;;5050049;28;20025;-77
2022/08/15 07:27:04;;;;;;;46.38;42.60;;;21.10;78.70;;;;;;5049845;28;20041;-77
2022/08/15 07:29:37;;;;;;;53.85;50.03;;;21.10;78.60;;;;;;5050871;28;20025;-78
2022/08/15 07:32:18;;;;;;;52.63;49.17;;;21.10;78.50;;;;;;5049167;28;20033;-77
2022/08/15 07:35:12;;;;;;;;;;;21.20;78.70;;;;;;5051449;28;20024;-77
2022/08/15 07:37:41;;;;;;;47.20;43.90;;;21.20;78.60;;;;;;5048341;28;19931;-77
2022/08/15 07:40:17;;;;;;;46.03;42.67;;;21.30;78.40;;;;;;5018871;28;20034;-77
2022/08/15 07:42:44;;;;;;;42.92;39.88;;;21.40;78.20;;;;;;5012013;28;20038;-77
2022/08/15 07:45:28;;;;;;;46.25;43.10;;;21.30;77.80;;;;;;5031018;28;20095;-77
2022/08/15 07:47:59;;;;;;;45.22;41.85;;;21.40;78.10;;;;;;4997473;28;20045;-77
2022/08/15 07:50:28;;;;;;;47.30;43.85;;;21.40;77.80;;;;;;4995657;28;20033;-77
2022/08/15 07:52:56;;;;;;;51.42;47.75;;;21.40;77.80;;;;;;5028547;28;20044;-77
2022/08/15 07:55:22;;;;;;;47.67;44.40;;;21.50;78.20;;;;;;4995829;28;20042;-77
2022/08/15 07:58:02;;;;;;;41.75;38.72;;;21.50;77.70;;;;;;4995380;28;20037;-77
2022/08/15 08:00:29;;;;;;;52.63;49.15;;;21.50;77.70;;;;;;5011298;28;20033;-77
2022/08/15 08:03:08;;;;;;;52.65;48.60;;;21.60;77.60;;;;;;4995692;28;20030;-78
2022/08/15 08:05:43;;;;;;;48.88;45.53;;;21.60;77.40;;;;;;5011667;28;20041;-78
2022/08/15 08:08:09;;;;;;;42.20;39.30;;;21.60;77.20;;;;;;5012834;28;20125;-77
2022/08/15 08:10:46;;;;;;;46.00;42.80;;;21.60;77.20;;;;;;4995042;28;20052;-77
2022/08/15 08:13:27;;;;;;;47.83;44.33;;;21.60;77.10;;;;;;4995709;28;20489;-77
2022/08/15 08:16:08;;;;;;;40.13;37.10;;;21.60;77.60;;;;;;5030276;28;20049;-77
2022/08/15 08:18:47;;;;;;;42.83;39.50;;;21.70;75.50;;;;;;5030766;28;20034;-77
2022/08/15 08:21:16;;;;;;;46.28;42.78;;;21.70;75.90;;;;;;5029624;28;20384;-77
2022/08/15 08:23:47;;;;;;;36.75;34.20;;;21.70;76.10;;;;;;5029491;28;20021;-77
2022/08/15 08:26:44;;;;;;;37.28;34.50;;;21.80;75.70;;;;;;5029327;28;20041;-77
2022/08/15 08:29:23;;;;;;;37.22;34.25;;;21.70;75.90;;;;;;5015058;28;20038;-77
2022/08/15 08:32:17;;;;;;;39.08;36.10;;;21.80;76.40;;;;;;5013022;28;20420;-77
2022/08/15 08:35:00;;;;;;;34.97;32.35;;;21.80;76.20;;;;;;4991974;28;20038;-77
2022/08/15 08:37:37;;;;;;;38.30;35.20;;;21.80;75.70;;;;;;5008508;28;20053;-77
2022/08/15 08:43:05;;;;;;;39.25;36.10;;;21.90;75.50;;;;;;5020240;28;20056;-77
2022/08/15 08:45:47;;;;;;;38.28;35.38;;;22.00;75.10;;;;;;5011864;28;20041;-77
2022/08/15 08:48:37;;;;;;;42.40;39.50;;;22.10;74.90;;;;;;4995188;28;20049;-77
2022/08/15 08:51:08;;;;;;;40.10;37.27;;;22.00;74.20;;;;;;5011131;28;20044;-77
2022/08/15 08:53:52;;;;;;;41.92;39.03;;;22.10;74.00;;;;;;4995579;28;20064;-77
2022/08/15 08:56:25;;;;;;;43.15;39.88;;;22.20;73.90;;;;;;5010904;28;20496;-77
2022/08/15 08:59:05;;;;;;;43.75;40.30;;;22.10;74.80;;;;;;5011934;28;20053;-77
2022/08/15 09:01:31;;;;;;;40.40;37.40;;;22.20;74.10;;;;;;5012842;28;20049;-77
2022/08/15 09:04:04;;;;;;;36.95;34.38;;;22.20;73.80;;;;;;5015005;28;20049;-77
2022/08/15 09:06:34;;;;;;;40.13;37.65;;;22.20;73.00;;;;;;4999076;28;20041;-77
2022/08/15 09:09:07;;;;;;;35.53;32.50;;;22.30;73.30;;;;;;5015397;28;20048;-77
2022/08/15 09:11:40;;;;;;;33.58;31.17;;;22.40;73.30;;;;;;5012244;28;20041;-78
2022/08/15 09:14:35;;;;;;;38.22;35.47;;;22.60;72.20;;;;;;5052591;28;20052;-77
2022/08/15 09:17:12;;;;;;;36.58;33.85;;;22.80;72.20;;;;;;5036255;28;20033;-77
2022/08/15 09:20:07;;;;;;;36.78;34.45;;;23.00;70.90;;;;;;5036121;28;20032;-77
2022/08/15 09:22:34;;;;;;;33.78;31.38;;;23.20;70.70;;;;;;5037271;28;20052;-77
2022/08/15 09:25:00;;;;;;;38.47;35.90;;;23.20;68.90;;;;;;5052227;28;20040;-77
2022/08/15 09:27:43;;;;;;;42.28;39.28;;;23.30;68.80;;;;;;5035060;28;20041;-77
2022/08/15 09:30:10;;;;;;;39.42;36.90;;;23.30;68.50;;;;;;5034537;28;20044;-77
2022/08/15 09:33:17;;;;;;;41.03;38.13;;;23.30;69.30;;;;;;5035637;28;20041;-77
2022/08/15 09:36:22;;;;;;;40.20;37.50;;;23.40;69.40;;;;;;5035189;28;20052;-77
2022/08/15 09:39:02;;;;;;;40.30;37.42;;;23.50;68.60;;;;;;5054116;28;20077;-77
2022/08/15 09:41:42;;;;;;;38.33;35.40;;;23.50;68.20;;;;;;5035080;28;20053;-77
2022/08/15 09:44:23;;;;;;;37.20;34.65;;;23.50;68.20;;;;;;5043745;28;20025;-77
2022/08/15 09:47:00;;;;;;;41.38;38.50;;;23.50;68.80;;;;;;5029894;28;20088;-78
2022/08/15 09:50:15;;;;;;;35.25;32.90;;;23.50;67.60;;;;;;5051416;28;20037;-77
2022/08/15 09:52:47;;;;;;;36.92;34.47;;;23.60;66.40;;;;;;5030548;28;20033;-77
2022/08/15 09:55:35;;;;;;;39.10;36.33;;;23.60;66.10;;;;;;5013728;28;20038;-77
2022/08/15 09:58:18;;;;;;;36.70;34.25;;;23.60;66.50;;;;;;5030387;28;20060;-77
2022/08/15 10:01:09;;;;;;;40.30;37.88;;;23.80;66.60;;;;;;5029822;28;20048;-77
2022/08/15 10:03:44;;;;;;;37.90;35.17;;;23.90;65.90;;;;;;5013805;28;20037;-77
2022/08/15 10:06:15;;;;;;;35.72;33.15;;;24.10;65.50;;;;;;5030561;28;20052;-77
2022/08/15 10:08:53;;;;;;;34.50;32.20;;;24.10;64.80;;;;;;5013412;28;20048;-77
2022/08/15 10:11:30;;;;;;;36.83;34.33;;;24.20;64.40;;;;;;5029868;28;20052;-77
2022/08/15 10:14:05;;;;;;;36.55;33.95;;;24.30;64.70;;;;;;5013590;28;20042;-77
2022/08/15 10:16:38;;;;;;;35.05;32.75;;;24.60;64.70;;;;;;5029709;28;20038;-77
2022/08/15 10:19:29;;;;;;;32.70;30.50;;;24.80;62.80;;;;;;5013424;28;20044;-77
2022/08/15 10:21:56;;;;;;;32.40;30.00;;;25.00;61.70;;;;;;5012750;28;20092;-77
2022/08/15 10:24:34;;;;;;;35.90;33.60;;;25.20;61.50;;;;;;5013074;28;20042;-77
2022/08/15 10:27:17;;;;;;;33.55;31.40;;;25.30;61.10;;;;;;5029797;28;20037;-77
2022/08/15 10:29:51;;;;;;;30.10;28.15;;;25.40;60.70;;;;;;5031328;28;20052;-78
2022/08/15 10:32:29;;;;;;;32.15;30.00;;;25.50;60.60;;;;;;5050597;28;20060;-77
2022/08/15 10:35:24;;;;;;;30.42;28.52;;;25.60;61.20;;;;;;5051974;28;20041;-78
2022/08/15 10:37:53;;;;;;;33.53;31.25;;;25.70;60.60;;;;;;5051140;28;20033;-77
2022/08/15 10:40:23;;;;;;;31.70;29.45;;;25.80;60.40;;;;;;5033354;28;20376;-77
2022/08/15 10:43:02;;;;;;;32.63;30.45;;;25.70;59.70;;;;;;5050955;28;20494;-77
2022/08/15 10:45:41;;;;;;;30.48;28.10;;;25.70;59.60;;;;;;5034745;28;20025;-77
2022/08/15 10:48:13;;;;;;;33.85;30.92;;;25.50;60.20;;;;;;5050321;28;20430;-77
2022/08/15 10:50:44;;;;;;;32.28;30.17;;;25.50;60.30;;;;;;5050285;28;20041;-76
2022/08/15 10:53:15;;;;;;;;;;;25.40;60.50;;;;;;5052043;28;20048;-77
2022/08/15 10:55:41;;;;;;;36.67;34.38;;;25.40;61.00;;;;;;5033994;28;19908;-77
2022/08/15 10:58:15;;;;;;;36.72;34.72;;;25.40;61.10;;;;;;5033704;28;20426;-77
2022/08/15 11:01:04;;;;;;;35.03;32.63;;;25.30;60.90;;;;;;5049840;28;20033;-77
2022/08/15 11:03:40;;;;;;;37.45;34.90;;;25.30;61.50;;;;;;5034429;28;20044;-77
2022/08/15 11:06:13;;;;;;;46.97;44.20;;;25.20;61.60;;;;;;5034685;28;20033;-77
2022/08/15 11:08:46;;;;;;;38.00;35.42;;;25.20;61.60;;;;;;5034000;28;20037;-78
2022/08/15 11:11:12;;;;;;;37.90;35.20;;;25.30;62.00;;;;;;5050392;28;20024;-77
2022/08/15 11:13:39;;;;;;;40.53;37.90;;;25.30;61.80;;;;;;5033387;28;20044;-77
2022/08/15 11:16:18;;;;;;;38.42;35.92;;;25.40;62.20;;;;;;5049412;28;20041;-78
2022/08/15 11:18:50;;;;;;;34.50;32.28;;;25.40;61.60;;;;;;5050273;28;20028;-76
2022/08/15 11:21:30;;;;;;;36.60;34.45;;;25.60;61.90;;;;;;5050362;28;20052;-77
2022/08/15 11:24:00;;;;;;;35.03;32.73;;;25.70;61.60;;;;;;5050883;28;20029;-77
2022/08/15 11:26:29;;;;;;;33.75;31.60;;;25.80;61.20;;;;;;5050082;28;20033;-77
2022/08/15 11:29:13;;;;;;;32.80;30.67;;;25.90;60.00;;;;;;5049871;28;20029;-77
2022/08/15 11:31:52;;;;;;;32.88;30.65;;;26.00;59.70;;;;;;5049384;28;20033;-77
2022/08/15 11:34:40;;;;;;;35.25;33.10;;;26.10;59.50;;;;;;5051827;28;20029;-77
2022/08/15 11:37:23;;;;;;;30.35;28.30;;;26.10;58.80;;;;;;5013389;28;20403;-77
2022/08/15 11:40:13;;;;;;;30.13;28.00;;;26.30;58.90;;;;;;5040371;28;20037;-77
2022/08/15 11:42:39;;;;;;;31.02;28.80;;;26.50;58.00;;;;;;5049844;28;20051;-77
2022/08/15 11:45:07;;;;;;;30.45;28.55;;;26.50;57.80;;;;;;5033399;28;20575;-77
2022/08/15 11:47:34;;;;;;;28.55;26.58;;;26.60;57.90;;;;;;5049052;28;20060;-77
2022/08/15 11:50:05;;;;;;;29.95;28.05;;;26.70;57.70;;;;;;5032875;28;20403;-77
2022/08/15 11:52:36;;;;;;;29.50;27.40;;;26.80;57.10;;;;;;5049371;28;20048;-77
2022/08/15 11:55:26;;;;;;;31.55;29.42;;;26.80;57.30;;;;;;5049604;28;20025;-77
2022/08/15 11:58:13;;;;;;;30.77;28.63;;;26.80;56.70;;;;;;5049633;28;20029;-76
2022/08/15 12:00:43;;;;;;;28.30;26.33;;;26.80;56.50;;;;;;5045273;28;20274;-77
2022/08/15 12:03:32;;;;;;;30.52;28.67;;;26.80;56.90;;;;;;5049606;28;20025;-76
2022/08/15 12:06:18;;;;;;;31.83;29.73;;;26.90;55.90;;;;;;5049356;28;20033;-77
2022/08/15 12:08:46;;;;;;;27.38;25.58;;;26.90;55.70;;;;;;5049534;28;20028;-77
2022/08/15 12:11:22;;;;;;;26.92;25.13;;;26.90;55.90;;;;;;5032888;28;20044;-77
2022/08/15 12:14:13;;;;;;;28.55;26.45;;;26.90;56.60;;;;;;5049702;28;20044;-77
2022/08/15 12:16:47;;;;;;;30.33;28.33;;;27.10;56.10;;;;;;5048687;28;20511;-77
2022/08/15 12:19:35;;;;;;;32.10;30.00;;;27.10;55.80;;;;;;5032754;28;20037;-77
2022/08/15 12:22:13;;;;;;;30.60;28.15;;;27.20;55.40;;;;;;5049199;28;20045;-79
2022/08/15 12:24:44;;;;;;;29.65;27.63;;;27.30;55.20;;;;;;5032771;28;20521;-79
2022/08/15 12:27:10;;;;;;;31.00;29.20;;;27.40;55.20;;;;;;5032707;28;20507;-79
2022/08/15 12:29:37;;;;;;;36.80;34.72;;;27.40;55.10;;;;;;5032612;28;20033;-79
2022/08/15 12:32:05;;;;;;;31.48;29.67;;;27.50;54.40;;;;;;5048726;28;20044;-79
2022/08/15 12:34:39;;;;;;;29.08;27.00;;;27.30;54.30;;;;;;5032205;28;20044;-79
2022/08/15 12:37:11;;;;;;;28.83;26.77;;;27.30;54.30;;;;;;5036487;28;20356;-79
2022/08/15 12:39:40;;;;;;;29.50;27.60;;;27.20;54.70;;;;;;5036682;28;20041;-78
2022/08/15 12:42:07;;;;;;;29.77;27.98;;;27.20;55.30;;;;;;5036687;28;20049;-79
2022/08/15 12:44:36;;;;;;;31.63;29.70;;;27.30;55.40;;;;;;5041655;28;20376;-79
2022/08/15 12:47:02;;;;;;;33.70;31.60;;;27.40;54.80;;;;;;5014787;28;20060;-79
2022/08/15 12:49:28;;;;;;;32.88;30.42;;;27.50;54.20;;;;;;5035815;28;20041;-79
2022/08/15 12:51:54;;;;;;;29.75;27.50;;;27.40;54.10;;;;;;5052563;28;20044;-79
2022/08/15 12:54:20;;;;;;;29.58;27.48;;;27.30;54.20;;;;;;5054219;28;20036;-79
2022/08/15 12:56:46;;;;;;;31.70;29.40;;;27.30;54.30;;;;;;5053034;28;20040;-79
2022/08/15 12:59:13;;;;;;;32.70;30.80;;;27.30;54.50;;;;;;5054032;28;20091;-79
2022/08/15 13:01:40;;;;;;;31.17;29.17;;;27.30;54.80;;;;;;5035653;28;20041;-79
2022/08/15 13:04:10;;;;;;;32.00;30.05;;;27.40;54.80;;;;;;5035705;28;20037;-79